Thursday, January 18, 2018, 12:14 AM GMT
Back to Local

CWVQ, Ste Anne De Bell 1

Location: , , Canada Lat: 45.433
Local Time: 12:14 AM GMT ( 0:14 GMT) Lon: -73.933
Time Zone: GMT Elev: 127 ft

Show me the last for .
Show Coded

Time T Td Feel RH Dir Speed Gust Alt SLP Vis Weather Sky Remarks
2018-01-17 23:00 19 15 11 83 200° 6 - - 30.14 0 None
2018-01-17 22:00 18 15 13 88 220° 3 - - 30.17 0 None
2018-01-17 21:00 18 15 11 86 250° 5 - - 30.20 0 None
2018-01-17 20:00 20 15 11 78 250° 8 - - 30.21 0 None
2018-01-17 19:00 18 14 10 84 240° 6 - - 30.24 0 None
2018-01-17 18:00 17 14 9 84 250° 6 - - 30.27 0 None
2018-01-17 17:00 16 12 6 85 190° 7 - - 30.31 0 None
2018-01-17 16:00 16 13 10 88 180° 3 - - 30.35 0 1-hr Precip Total: 0.01"
2018-01-17 15:00 13 12 7 93 190° 3 - - 30.37 0 None
2018-01-17 14:00 12 10 - 93 240° 2 - - 30.37 0 None
2018-01-17 13:00 13 10 - 85 200° 1 - - 30.38 0 None
2018-01-17 12:00 11 11 - 100 280° 1 - - 30.37 0 None
2018-01-17 11:00 13 10 7 85 260° 3 - - 30.39 0 None
2018-01-17 10:00 10 8 - 92 220° 2 - - 30.38 0 None
2018-01-17 09:00 10 8 - 92 220° 1 - - 30.39 0 None
2018-01-17 08:00 12 10 - 92 230° 2 - - 30.41 0 None
2018-01-17 07:00 11 9 - 91 330° 2 - - 30.40 0 1-hr Precip Total: 0.01"
2018-01-17 06:00 11 9 - 92 70° 2 - - 30.39 0 None
2018-01-17 05:00 11 9 5 92 320° 3 - - 30.41 0 None
2018-01-17 04:00 10 8 - 92 350° 1 - - 30.42 0 None
2018-01-17 03:00 7 5 - 90 - Calm - - 30.42 0 None
2018-01-17 02:00 11 8 - 90 350° 2 - - 30.42 0 None
2018-01-17 01:00 12 11 5 98 20° 3 - - 30.44 0 None

Support USWX by starting your Amazon purchase here.